createdAt,value
2023-02-11T00:01:11.987Z,71.97
2023-02-11T00:03:39.012Z,112.97
2023-02-11T00:06:09.116Z,75.80
2023-02-11T00:08:36.135Z,77.03
2023-02-11T00:11:02.895Z,75.77
2023-02-11T00:13:29.754Z,67.07
2023-02-11T00:15:56.579Z,64.33
2023-02-11T00:18:23.422Z,67.53
2023-02-11T00:20:50.273Z,65.87
2023-02-11T00:23:17.073Z,72.50
2023-02-11T00:25:44.714Z,63.03
2023-02-11T00:28:11.910Z,65.57
2023-02-11T00:30:38.853Z,78.37
2023-02-11T00:33:05.729Z,65.33
2023-02-11T00:35:32.616Z,124.70
2023-02-11T00:37:59.360Z,76.10
2023-02-11T00:40:26.084Z,76.13
2023-02-11T00:42:52.862Z,73.17
2023-02-11T00:45:21.294Z,74.87
2023-02-11T00:47:48.270Z,75.63
2023-02-11T00:50:15.060Z,71.13
2023-02-11T00:52:41.911Z,62.80
2023-02-11T00:55:08.932Z,67.67
2023-02-11T00:57:35.767Z,73.60
2023-02-11T01:00:03.378Z,68.33
2023-02-11T01:02:30.207Z,68.33
2023-02-11T01:04:58.498Z,70.57
2023-02-11T01:07:25.813Z,65.20
2023-02-11T01:09:52.627Z,63.97
2023-02-11T01:12:19.473Z,66.00
2023-02-11T01:14:46.284Z,66.43
2023-02-11T01:17:13.057Z,57.77
2023-02-11T01:19:39.950Z,61.37
2023-02-11T01:22:06.811Z,65.40
2023-02-11T01:24:33.663Z,68.00
2023-02-11T01:27:00.449Z,56.97
2023-02-11T01:29:27.240Z,61.83
2023-02-11T01:31:54.101Z,62.83
2023-02-11T01:34:20.932Z,62.40
2023-02-11T01:36:47.719Z,70.23
2023-02-11T01:39:14.491Z,59.20
2023-02-11T01:41:41.253Z,64.67
2023-02-11T01:44:37.164Z,66.77
2023-02-11T01:47:06.284Z,65.23
2023-02-11T01:49:35.250Z,61.80
2023-02-11T01:52:07.926Z,61.13
2023-02-11T01:54:54.961Z,66.70
2023-02-11T01:57:23.367Z,65.13
2023-02-11T02:00:05.153Z,67.50
2023-02-11T02:02:50.417Z,64.30
2023-02-11T02:05:24.782Z,57.33
2023-02-11T02:07:56.586Z,59.93
2023-02-11T02:10:24.508Z,63.47
2023-02-11T02:12:51.323Z,57.03
2023-02-11T02:15:19.309Z,62.80
2023-02-11T02:18:02.290Z,61.50
2023-02-11T02:20:47.086Z,63.00
2023-02-11T02:23:29.859Z,59.87
2023-02-11T02:26:29.910Z,57.50
2023-02-11T02:29:05.862Z,59.83
2023-02-11T02:31:50.854Z,62.10
2023-02-11T02:34:42.121Z,60.70
2023-02-11T02:37:13.428Z,56.83
2023-02-11T02:39:40.277Z,54.33
2023-02-11T02:42:07.714Z,53.00
2023-02-11T02:44:34.510Z,55.07
2023-02-11T02:47:01.323Z,49.77
2023-02-11T02:49:28.264Z,55.83
2023-02-11T02:52:14.904Z,57.83
2023-02-11T02:55:00.969Z,52.77
2023-02-11T02:57:52.863Z,57.37
2023-02-11T03:00:26.128Z,52.23
2023-02-11T03:03:22.260Z,51.37
2023-02-11T03:06:04.320Z,54.03
2023-02-11T03:08:34.953Z,60.83
2023-02-11T03:11:01.822Z,56.17
2023-02-11T03:13:33.574Z,57.67
2023-02-11T03:16:05.247Z,62.83
2023-02-11T03:18:32.251Z,59.37
2023-02-11T03:20:59.170Z,60.63
2023-02-11T03:23:28.988Z,56.43
2023-02-11T03:26:08.019Z,63.73
2023-02-11T03:28:38.991Z,57.27
2023-02-11T03:31:18.974Z,55.53
2023-02-11T03:34:04.596Z,57.92
2023-02-11T03:36:47.491Z,53.03
2023-02-11T03:39:16.545Z,59.17
2023-02-11T03:41:43.370Z,55.97
2023-02-11T03:44:10.147Z,53.27
2023-02-11T03:46:38.063Z,51.80
2023-02-11T03:49:14.749Z,55.47
2023-02-11T03:51:41.556Z,53.80
2023-02-11T03:54:11.631Z,52.33
2023-02-11T03:56:54.150Z,55.25
2023-02-11T03:59:20.966Z,56.60
2023-02-11T04:01:47.907Z,51.27
2023-02-11T04:04:14.828Z,56.13
2023-02-11T04:06:41.649Z,61.57
2023-02-11T04:09:08.937Z,52.60
2023-02-11T04:11:35.714Z,60.57
2023-02-11T04:14:02.530Z,50.07
2023-02-11T04:16:31.048Z,62.97
2023-02-11T04:18:58.137Z,65.80
2023-02-11T04:21:25.013Z,54.27
2023-02-11T04:23:51.824Z,56.63
2023-02-11T04:26:18.624Z,58.73
2023-02-11T04:28:45.339Z,51.87
2023-02-11T04:31:12.927Z,54.53
2023-02-11T04:33:39.798Z,56.90
2023-02-11T04:36:07.006Z,58.73
2023-02-11T04:38:33.743Z,55.60
2023-02-11T04:41:00.665Z,55.93
2023-02-11T04:43:27.400Z,61.40
2023-02-11T04:45:58.098Z,56.10
2023-02-11T04:48:25.433Z,54.63
2023-02-11T04:50:52.152Z,54.33
2023-02-11T04:53:18.905Z,53.07
2023-02-11T04:55:45.996Z,53.67
2023-02-11T04:58:12.805Z,52.00
2023-02-11T05:00:39.584Z,57.53
2023-02-11T05:03:06.413Z,62.20
2023-02-11T05:05:33.189Z,57.47
2023-02-11T05:07:59.969Z,66.23
2023-02-11T05:10:26.850Z,62.37
2023-02-11T05:12:55.905Z,62.67
2023-02-11T05:15:22.839Z,54.43
2023-02-11T05:17:49.682Z,57.30
2023-02-11T05:20:16.526Z,54.27
2023-02-11T05:22:43.241Z,58.23
2023-02-11T05:25:10.132Z,69.10
2023-02-11T05:27:36.945Z,51.93
2023-02-11T05:30:03.924Z,61.40
2023-02-11T05:32:30.692Z,55.37
2023-02-11T05:34:57.621Z,58.97
2023-02-11T05:37:24.500Z,52.13
2023-02-11T05:39:51.258Z,54.03
2023-02-11T05:42:18.019Z,55.70
2023-02-11T05:44:44.822Z,50.17
2023-02-11T05:47:11.769Z,64.30
2023-02-11T05:49:38.607Z,52.23
2023-02-11T05:52:05.468Z,55.77
2023-02-11T05:54:32.336Z,56.13
2023-02-11T05:56:59.144Z,50.67
2023-02-11T05:59:26.379Z,59.53
2023-02-11T06:01:53.215Z,72.97
2023-02-11T06:04:20.014Z,59.70
2023-02-11T06:06:46.833Z,57.90
2023-02-11T06:09:13.679Z,54.57
2023-02-11T06:11:40.470Z,61.00
2023-02-11T06:14:07.259Z,63.80
2023-02-11T06:16:34.111Z,67.27
2023-02-11T06:19:00.958Z,55.90
2023-02-11T06:21:40.023Z,54.80
2023-02-11T06:24:10.511Z,55.73
2023-02-11T06:26:37.296Z,56.40
2023-02-11T06:29:04.048Z,54.80
2023-02-11T06:31:30.915Z,50.40
2023-02-11T06:33:59.325Z,51.77
2023-02-11T06:36:26.153Z,75.90
2023-02-11T06:38:52.982Z,63.50
2023-02-11T06:41:22.395Z,72.57
2023-02-11T06:43:49.212Z,66.43
2023-02-11T06:46:16.162Z,61.97
2023-02-11T06:48:44.829Z,54.97
2023-02-11T06:51:13.331Z,60.07
2023-02-11T06:53:43.092Z,62.63
2023-02-11T06:56:11.872Z,63.17
2023-02-11T06:58:38.648Z,59.50
2023-02-11T07:01:10.127Z,59.50
2023-02-11T07:03:38.051Z,48.90
2023-02-11T07:06:05.883Z,55.00
2023-02-11T07:08:36.081Z,49.75
2023-02-11T07:11:14.635Z,45.15
2023-02-11T07:13:41.415Z,54.17
2023-02-11T07:16:09.531Z,53.50
2023-02-11T07:18:36.340Z,48.35
2023-02-11T07:21:07.134Z,357.35
2023-02-11T07:23:34.123Z,52.75
2023-02-11T07:26:14.819Z,58.13
2023-02-11T07:28:41.799Z,47.63
2023-02-11T07:31:09.722Z,56.38
2023-02-11T07:33:36.958Z,48.55
2023-02-11T07:36:04.593Z,46.25
2023-02-11T07:38:32.525Z,51.13
2023-02-11T07:41:05.859Z,44.78
2023-02-11T07:43:32.762Z,44.72
2023-02-11T07:45:59.568Z,46.83
2023-02-11T07:48:26.347Z,44.58
2023-02-11T07:50:53.162Z,44.15
2023-02-11T07:53:19.946Z,48.25
2023-02-11T07:55:46.658Z,46.40
2023-02-11T07:58:13.470Z,40.45
2023-02-11T08:00:40.440Z,38.20
2023-02-11T08:03:08.393Z,41.08
2023-02-11T08:05:38.283Z,44.53
2023-02-11T08:08:05.024Z,52.42
2023-02-11T08:10:31.792Z,46.17
2023-02-11T08:12:58.602Z,58.08
2023-02-11T08:15:25.436Z,46.10
2023-02-11T08:17:52.202Z,45.35
2023-02-11T08:20:19.029Z,47.83
2023-02-11T08:22:45.874Z,45.65
2023-02-11T08:25:12.685Z,37.72
2023-02-11T08:27:39.602Z,39.38
2023-02-11T08:30:06.910Z,38.50
2023-02-11T08:32:34.878Z,39.78
2023-02-11T08:35:01.672Z,38.92
2023-02-11T08:37:28.450Z,38.55
2023-02-11T08:39:55.180Z,37.60
2023-02-11T08:42:22.064Z,39.78
2023-02-11T08:44:48.862Z,40.70
2023-02-11T08:47:15.627Z,41.88
2023-02-11T08:49:42.454Z,40.80
2023-02-11T08:52:09.414Z,41.05
2023-02-11T08:54:36.870Z,39.67
2023-02-11T08:57:04.004Z,152.73
2023-02-11T08:59:30.921Z,68.18
2023-02-11T09:01:58.050Z,80.70
2023-02-11T09:04:24.981Z,53.47
2023-02-11T09:06:51.923Z,45.40
2023-02-11T09:09:18.678Z,59.38
2023-02-11T09:11:45.569Z,54.60
2023-02-11T09:14:19.911Z,45.72
2023-02-11T09:16:46.853Z,47.50
2023-02-11T09:19:13.704Z,44.25
2023-02-11T09:21:40.478Z,45.03
2023-02-11T09:24:07.328Z,39.20
2023-02-11T09:26:35.063Z,40.53
2023-02-11T09:29:01.937Z,41.35
2023-02-11T09:31:29.645Z,42.22
2023-02-11T09:34:01.890Z,39.78
2023-02-11T09:36:30.473Z,43.97
2023-02-11T09:38:58.458Z,37.13
2023-02-11T09:41:42.239Z,36.88
2023-02-11T09:44:17.695Z,34.50
2023-02-11T09:46:44.458Z,32.10
2023-02-11T09:49:23.433Z,42.13
2023-02-11T09:51:57.109Z,58.15
2023-02-11T09:54:37.273Z,43.75
2023-02-11T09:57:06.175Z,35.38
2023-02-11T09:59:33.036Z,45.42
2023-02-11T10:02:06.923Z,39.22
2023-02-11T10:04:57.936Z,43.15
2023-02-11T10:07:56.705Z,36.35
2023-02-11T10:10:32.373Z,37.00
2023-02-11T10:13:02.722Z,38.20
2023-02-11T10:15:39.726Z,79.78
2023-02-11T10:18:31.785Z,40.35
2023-02-11T10:21:23.046Z,35.70
2023-02-11T10:23:52.295Z,25.60
2023-02-11T10:26:19.498Z,33.60
2023-02-11T10:28:47.959Z,32.88
2023-02-11T10:31:19.607Z,24.75
2023-02-11T10:34:03.525Z,32.40
2023-02-11T10:36:34.196Z,35.50
2023-02-11T10:39:17.500Z,40.78
2023-02-11T10:41:46.454Z,38.53
2023-02-11T10:44:39.012Z,38.55
2023-02-11T10:47:37.571Z,36.38
2023-02-11T10:50:20.987Z,39.45
2023-02-11T10:52:47.934Z,40.63
2023-02-11T10:55:24.311Z,60.63
2023-02-11T10:57:59.294Z,37.97
2023-02-11T11:00:42.661Z,53.67
2023-02-11T11:03:36.972Z,37.65
2023-02-11T11:06:08.735Z,55.05
2023-02-11T11:08:48.083Z,31.48
2023-02-11T11:11:17.860Z,38.20
2023-02-11T11:13:53.798Z,51.97
2023-02-11T11:16:28.508Z,38.03
2023-02-11T11:19:07.619Z,33.88
2023-02-11T11:21:40.807Z,30.35
2023-02-11T11:24:29.485Z,33.05
2023-02-11T11:26:58.453Z,38.97
2023-02-11T11:29:38.342Z,38.80
2023-02-11T11:32:20.735Z,44.77
2023-02-11T11:34:52.624Z,33.28
2023-02-11T11:37:37.782Z,34.38
2023-02-11T11:40:16.769Z,37.13
2023-02-11T11:42:43.672Z,35.35
2023-02-11T11:45:16.199Z,36.20
2023-02-11T11:48:00.546Z,39.47
2023-02-11T11:50:43.574Z,35.92
2023-02-11T11:53:19.036Z,40.78
2023-02-11T11:55:52.575Z,35.42
2023-02-11T11:58:21.392Z,35.97
2023-02-11T12:00:53.310Z,37.17
2023-02-11T12:03:23.290Z,37.47
2023-02-11T12:05:52.617Z,43.35
2023-02-11T12:08:44.200Z,174.30
2023-02-11T12:11:28.037Z,256.63
2023-02-11T12:14:04.997Z,43.25
2023-02-11T12:16:51.977Z,87.13
2023-02-11T12:19:36.786Z,44.25
2023-02-11T12:22:39.161Z,47.20
2023-02-11T12:25:20.774Z,51.08
2023-02-11T12:28:10.688Z,49.92
2023-02-11T12:31:04.514Z,51.47
2023-02-11T12:33:39.942Z,53.25
2023-02-11T12:36:28.076Z,47.95
2023-02-11T12:39:16.754Z,51.10
2023-02-11T12:42:27.794Z,51.85
2023-02-11T12:45:09.440Z,48.85
2023-02-11T12:47:45.418Z,74.68
2023-02-11T12:50:30.506Z,48.33
2023-02-11T12:53:03.192Z,47.63
2023-02-11T12:55:33.679Z,45.65
2023-02-11T12:58:00.499Z,464.05
2023-02-11T13:00:33.944Z,52.33
2023-02-11T13:03:09.817Z,49.13
2023-02-11T13:05:57.131Z,55.63
2023-02-11T13:08:33.808Z,54.33
2023-02-11T13:11:07.940Z,50.53
2023-02-11T13:13:43.126Z,51.17
2023-02-11T13:16:34.604Z,52.63
2023-02-11T13:19:14.091Z,46.63
2023-02-11T13:22:05.772Z,48.90
2023-02-11T13:24:41.782Z,50.58
2023-02-11T13:27:45.751Z,47.55
2023-02-11T13:30:22.378Z,53.05
2023-02-11T13:32:58.319Z,65.13
2023-02-11T13:35:31.903Z,48.25
2023-02-11T13:37:59.995Z,51.78
2023-02-11T13:40:29.002Z,48.28
2023-02-11T13:43:00.215Z,45.42
2023-02-11T13:45:46.685Z,45.38
2023-02-11T13:48:25.157Z,51.53
2023-02-11T13:51:00.115Z,46.90
2023-02-11T13:53:27.507Z,51.67
2023-02-11T13:56:09.450Z,61.28
2023-02-11T13:58:40.063Z,58.63
2023-02-11T14:01:07.456Z,43.90
2023-02-11T14:03:54.558Z,44.72
2023-02-11T14:06:44.375Z,44.95
2023-02-11T14:09:14.173Z,45.55
2023-02-11T14:11:43.372Z,47.83
2023-02-11T14:14:28.233Z,51.85
2023-02-11T14:17:20.236Z,51.53
2023-02-11T14:19:47.538Z,55.88
2023-02-11T14:22:16.619Z,46.33
2023-02-11T14:24:51.336Z,48.10
2023-02-11T14:27:39.931Z,52.50
2023-02-11T14:30:19.205Z,59.45
2023-02-11T14:33:05.310Z,65.15
2023-02-11T14:35:44.075Z,72.40
2023-02-11T14:38:16.824Z,69.53
2023-02-11T14:41:01.604Z,66.72
2023-02-11T14:43:48.139Z,69.50
2023-02-11T14:46:18.887Z,69.32
2023-02-11T14:48:49.462Z,69.88
2023-02-11T14:51:20.874Z,68.88
2023-02-11T14:53:52.493Z,61.28
2023-02-11T14:56:26.389Z,63.55
2023-02-11T14:58:54.036Z,72.05
2023-02-11T15:01:32.716Z,71.00
2023-02-11T15:04:01.369Z,70.63
2023-02-11T15:06:39.184Z,70.80
2023-02-11T15:09:18.534Z,73.97
2023-02-11T15:11:48.673Z,63.38
2023-02-11T15:14:24.130Z,65.10
2023-02-11T15:16:51.467Z,66.55
2023-02-11T15:19:35.880Z,82.47
2023-02-11T15:22:04.648Z,93.20
2023-02-11T15:24:32.447Z,95.65
2023-02-11T15:27:16.357Z,96.13
2023-02-11T15:29:49.201Z,94.70
2023-02-11T15:32:17.987Z,100.65
2023-02-11T15:34:45.511Z,94.00
2023-02-11T15:37:25.728Z,93.47
2023-02-11T15:39:53.122Z,93.78
2023-02-11T15:42:20.040Z,106.00
2023-02-11T15:44:50.565Z,100.88
2023-02-11T15:47:21.555Z,100.28
2023-02-11T15:49:48.685Z,110.85
2023-02-11T15:52:21.889Z,122.65
2023-02-11T15:54:48.713Z,125.07
2023-02-11T15:57:16.414Z,152.55
2023-02-11T15:59:47.518Z,152.07
2023-02-11T16:02:31.654Z,154.73
2023-02-11T16:05:00.750Z,135.15
2023-02-11T16:07:47.321Z,130.02
2023-02-11T16:10:31.541Z,96.88
2023-02-11T16:13:07.251Z,96.30
2023-02-11T16:15:34.056Z,103.85
2023-02-11T16:18:05.902Z,139.32
2023-02-11T16:20:34.866Z,184.20
2023-02-11T16:23:01.647Z,113.65
2023-02-11T16:25:28.438Z,100.65
2023-02-11T16:27:55.324Z,113.70
2023-02-11T16:30:33.288Z,101.90
2023-02-11T16:33:00.195Z,109.28
2023-02-11T16:35:26.907Z,115.65
2023-02-11T16:37:54.870Z,120.77
2023-02-11T16:40:23.502Z,118.40
2023-02-11T16:42:52.491Z,121.87
2023-02-11T16:45:19.489Z,122.17
2023-02-11T16:47:46.736Z,147.10
2023-02-11T16:50:23.016Z,194.77
2023-02-11T16:52:50.143Z,265.70
2023-02-11T16:55:17.097Z,296.63
2023-02-11T16:57:44.070Z,268.87
2023-02-11T17:00:11.431Z,279.30
2023-02-11T17:02:38.314Z,226.27
2023-02-11T17:05:07.395Z,217.93
2023-02-11T17:07:34.214Z,222.60
2023-02-11T17:10:01.151Z,263.33
2023-02-11T17:12:27.948Z,201.53
2023-02-11T17:14:54.835Z,170.70
2023-02-11T17:17:23.763Z,174.20
2023-02-11T17:19:51.242Z,159.53
2023-02-11T17:22:18.692Z,162.83
2023-02-11T17:24:45.559Z,156.70
2023-02-11T17:27:12.578Z,158.53
2023-02-11T17:29:39.491Z,245.07
2023-02-11T17:32:06.502Z,287.57
2023-02-11T17:34:33.390Z,226.40
2023-02-11T17:37:00.324Z,185.17
2023-02-11T17:39:27.583Z,201.43
2023-02-11T17:41:54.426Z,218.67
2023-02-11T17:44:21.277Z,234.60
2023-02-11T17:46:48.159Z,217.77
2023-02-11T17:49:15.778Z,250.20
2023-02-11T17:51:42.614Z,239.77
2023-02-11T17:54:12.516Z,205.87
2023-02-11T17:56:39.330Z,186.77
2023-02-11T17:59:07.378Z,133.23
2023-02-11T18:01:34.298Z,124.43
2023-02-11T18:04:01.170Z,117.13
2023-02-11T18:06:29.143Z,116.73
2023-02-11T18:09:02.233Z,113.13
2023-02-11T18:11:30.488Z,108.07
2023-02-11T18:14:01.054Z,114.43
2023-02-11T18:16:29.417Z,117.30
2023-02-11T18:18:57.131Z,127.93
2023-02-11T18:21:24.195Z,150.93
2023-02-11T18:23:51.111Z,164.60
2023-02-11T18:26:18.851Z,155.33
2023-02-11T18:28:46.206Z,181.37
2023-02-11T18:31:13.900Z,191.30
2023-02-11T18:33:43.809Z,193.63
2023-02-11T18:36:13.145Z,149.77
2023-02-11T18:38:40.313Z,128.90
2023-02-11T18:41:10.276Z,221.00
2023-02-11T18:43:37.235Z,137.87
2023-02-11T18:46:08.108Z,198.07
2023-02-11T18:48:34.950Z,209.98
2023-02-11T18:51:01.730Z,159.07
2023-02-11T18:53:28.476Z,158.60
2023-02-11T18:55:55.478Z,172.03
2023-02-11T18:58:22.543Z,162.47
2023-02-11T19:00:49.703Z,158.20
2023-02-11T19:03:16.857Z,170.90
2023-02-11T19:05:44.996Z,187.13
2023-02-11T19:08:11.837Z,195.57
2023-02-11T19:10:45.749Z,160.77
2023-02-11T19:13:12.826Z,126.60
2023-02-11T19:15:45.991Z,136.17
2023-02-11T19:18:13.417Z,117.57
2023-02-11T19:20:41.113Z,112.00
2023-02-11T19:23:08.097Z,116.30
2023-02-11T19:25:35.120Z,99.23
2023-02-11T19:28:02.685Z,166.63
2023-02-11T19:30:29.592Z,109.93
2023-02-11T19:32:57.597Z,107.23
2023-02-11T19:35:24.976Z,112.87
2023-02-11T19:37:51.887Z,112.63
2023-02-11T19:40:19.296Z,109.60
2023-02-11T19:42:46.109Z,109.23
2023-02-11T19:45:12.945Z,113.00
2023-02-11T19:47:39.674Z,103.40
2023-02-11T19:50:07.044Z,95.43
2023-02-11T19:52:33.954Z,147.57
2023-02-11T19:55:00.812Z,97.77
2023-02-11T19:57:27.568Z,92.27
2023-02-11T19:59:55.095Z,87.33
2023-02-11T20:02:21.994Z,89.50
2023-02-11T20:04:48.888Z,98.60
2023-02-11T20:07:15.648Z,97.97
2023-02-11T20:09:42.670Z,97.33
2023-02-11T20:12:09.748Z,90.60
2023-02-11T20:14:36.607Z,98.73
2023-02-11T20:17:03.467Z,118.47
2023-02-11T20:19:30.794Z,111.50
2023-02-11T20:21:57.669Z,101.90
2023-02-11T20:24:24.895Z,107.23
2023-02-11T20:26:55.610Z,98.30
2023-02-11T20:29:23.233Z,81.43
2023-02-11T20:31:50.284Z,83.60
2023-02-11T20:34:17.872Z,77.07
2023-02-11T20:36:51.484Z,74.90
2023-02-11T20:39:18.806Z,75.17
2023-02-11T20:41:46.253Z,70.23
2023-02-11T20:44:13.597Z,73.23
2023-02-11T20:46:42.210Z,87.53
2023-02-11T20:49:12.788Z,87.37
2023-02-11T20:51:39.766Z,85.38
2023-02-11T20:54:06.665Z,79.87
2023-02-11T20:56:37.965Z,86.00
2023-02-11T20:59:05.284Z,88.10
2023-02-11T21:01:34.259Z,77.83
2023-02-11T21:04:06.523Z,87.40
2023-02-11T21:06:41.794Z,80.63
2023-02-11T21:09:09.359Z,91.97
2023-02-11T21:11:36.190Z,93.73
2023-02-11T21:14:03.069Z,88.27
2023-02-11T21:16:29.996Z,85.23
2023-02-11T21:18:56.955Z,87.03
2023-02-11T21:21:24.063Z,76.43
2023-02-11T21:23:50.861Z,80.57
2023-02-11T21:26:17.870Z,84.53
2023-02-11T21:28:44.777Z,87.20
2023-02-11T21:31:19.600Z,90.87
2023-02-11T21:33:46.553Z,93.03
2023-02-11T21:36:14.950Z,98.93
2023-02-11T21:38:41.878Z,93.53
2023-02-11T21:41:08.720Z,93.53
2023-02-11T21:43:35.526Z,99.87
2023-02-11T21:46:15.089Z,88.97
2023-02-11T21:48:42.127Z,100.20
2023-02-11T21:51:11.927Z,107.27
2023-02-11T21:53:38.775Z,92.90
2023-02-11T21:56:07.647Z,83.77
2023-02-11T21:58:34.531Z,80.87
2023-02-11T22:01:01.459Z,78.37
2023-02-11T22:03:28.278Z,81.33
2023-02-11T22:05:55.367Z,77.17
2023-02-11T22:08:22.401Z,73.77
2023-02-11T22:10:49.226Z,69.03
2023-02-11T22:13:15.930Z,78.53
2023-02-11T22:15:42.705Z,75.53
2023-02-11T22:18:09.571Z,70.37
2023-02-11T22:20:36.315Z,78.60
2023-02-11T22:23:03.251Z,138.43
2023-02-11T22:25:30.049Z,76.10
2023-02-11T22:27:56.851Z,196.03
2023-02-11T22:30:23.649Z,113.33
2023-02-11T22:32:50.524Z,121.20
2023-02-11T22:35:17.433Z,93.87
2023-02-11T22:37:44.215Z,128.57
2023-02-11T22:40:11.564Z,118.97
2023-02-11T22:42:38.288Z,85.13
2023-02-11T22:45:05.893Z,66.90
2023-02-11T22:47:32.754Z,109.33
2023-02-11T22:49:59.523Z,108.07
2023-02-11T22:52:26.422Z,89.20
2023-02-11T22:54:55.021Z,91.60
2023-02-11T22:57:21.793Z,93.83
2023-02-11T22:59:49.274Z,112.93
2023-02-11T23:02:16.155Z,74.83
2023-02-11T23:04:43.109Z,73.37
2023-02-11T23:07:09.991Z,72.43
2023-02-11T23:09:36.800Z,69.33
2023-02-11T23:12:03.812Z,79.20
2023-02-11T23:14:30.586Z,76.20
2023-02-11T23:16:57.354Z,94.40
2023-02-11T23:19:24.217Z,96.57
2023-02-11T23:21:51.381Z,97.47
2023-02-11T23:24:18.141Z,84.77
2023-02-11T23:26:45.041Z,85.57
2023-02-11T23:29:12.096Z,91.10
2023-02-11T23:31:40.381Z,93.63
2023-02-11T23:34:08.197Z,95.63
2023-02-11T23:36:35.147Z,88.10
2023-02-11T23:39:02.073Z,93.63
2023-02-11T23:41:28.891Z,95.37
2023-02-11T23:43:56.796Z,103.63
2023-02-11T23:46:24.408Z,156.03
2023-02-11T23:48:51.395Z,182.53
2023-02-11T23:51:18.227Z,209.17
2023-02-11T23:53:49.402Z,201.20
2023-02-11T23:56:19.430Z,218.60
2023-02-11T23:58:48.691Z,205.43
